Hauptseite
METAR-TAF:

METAR-TAF

Flughäfen :

Pjöngjang, Nordkorea

Flughafen Sunan

Breite: 39-02N, Länge: 125-47E, Höhe: 36 m

METAR: fehlend

Zeit: 22:34 (14:04 UTC)

Prognose

Neuester Wetterbericht von vor 9 Stunden und 44 Minuten, um 04:20 UTC
Gültige Prognose vom 24 um 06 UTC bis 25 um 06 UTC
Wind 6 kt aus West
Sichtweite 10 km oder mehr
keine Wolken unter 1500 m und keine Kumulonimbus oder Gewitterwolken
Übergehend zu
vom 24 um 20 UTC bis 24 um 22 UTC
Wind 6 kt aus Nord
Sichtweite: 6000 m
Durchbrochene Bewölkung in der Höhe von 3300 ft

TAF: ZKPY 240420Z 2406/2506 27003MPS CAVOK BECMG 2420/2422 36003MPS 6000 BKN033

Wetterbeobachtungen und Prognosen von mehr als 4000 Flughäfen (METAR und TAF Bericht).

Die verfügbaren Stationen werden durch gelbe und rote Markierungen auf der Karte dargestellt.

Führen Sie die Maus auf sie, um den Namen der Station zu sehen.

Darauf klicken, um die Beobachtung von Wetterbeobachtungen und Prognosen zu sehen.

Um die Karte zu ändern : klicken Sie auf den grünen Tasten mit einem schwarzen Kreuz Zum Vergrößern, auf den grünen Button mit einem Gedankenstrich zu verkleinern, oder auf die grünen Pfeile für benachbarte Karten.


METAR-TAF: